sensor_id;sensor_type;location;lat;lon;timestamp;pressure;altitude;pressure_sealevel;temperature;humidity
34931;BME280;21134;49.646;8.560;2023-07-08T00:00:09;100465.28;;;20.78;58.80
34931;BME280;21134;49.646;8.560;2023-07-08T00:02:36;100466.97;;;20.79;58.58
34931;BME280;21134;49.646;8.560;2023-07-08T00:05:03;100458.13;;;20.83;58.64
34931;BME280;21134;49.646;8.560;2023-07-08T00:07:30;100446.88;;;20.83;58.87
34931;BME280;21134;49.646;8.560;2023-07-08T00:09:56;100451.31;;;20.81;58.51
34931;BME280;21134;49.646;8.560;2023-07-08T00:12:23;100443.66;;;20.78;58.04
34931;BME280;21134;49.646;8.560;2023-07-08T00:14:49;100443.91;;;20.72;57.53
34931;BME280;21134;49.646;8.560;2023-07-08T00:17:17;100447.41;;;20.71;58.02
34931;BME280;21134;49.646;8.560;2023-07-08T00:19:43;100444.94;;;20.67;58.78
34931;BME280;21134;49.646;8.560;2023-07-08T00:22:12;100437.22;;;20.66;59.41
34931;BME280;21134;49.646;8.560;2023-07-08T00:24:39;100432.63;;;20.52;59.68
34931;BME280;21134;49.646;8.560;2023-07-08T00:27:08;100424.97;;;20.48;59.45
34931;BME280;21134;49.646;8.560;2023-07-08T00:29:36;100433.00;;;20.43;60.27
34931;BME280;21134;49.646;8.560;2023-07-08T00:32:09;100425.25;;;20.41;59.80
34931;BME280;21134;49.646;8.560;2023-07-08T00:34:37;100427.13;;;20.38;60.07
34931;BME280;21134;49.646;8.560;2023-07-08T00:37:03;100422.31;;;20.29;60.24
34931;BME280;21134;49.646;8.560;2023-07-08T00:39:30;100422.66;;;20.21;59.72
34931;BME280;21134;49.646;8.560;2023-07-08T00:41:58;100426.34;;;20.15;59.15
34931;BME280;21134;49.646;8.560;2023-07-08T00:44:25;100430.00;;;20.11;59.16
34931;BME280;21134;49.646;8.560;2023-07-08T00:47:04;100428.56;;;20.25;59.28
34931;BME280;21134;49.646;8.560;2023-07-08T00:49:37;100427.19;;;20.16;59.89
34931;BME280;21134;49.646;8.560;2023-07-08T00:52:20;100436.22;;;20.07;59.44
34931;BME280;21134;49.646;8.560;2023-07-08T00:54:49;100440.03;;;19.98;60.19
34931;BME280;21134;49.646;8.560;2023-07-08T00:57:16;100440.22;;;19.94;60.53
34931;BME280;21134;49.646;8.560;2023-07-08T00:59:46;100439.63;;;19.87;61.07
34931;BME280;21134;49.646;8.560;2023-07-08T01:02:16;100443.13;;;19.86;61.45
34931;BME280;21134;49.646;8.560;2023-07-08T01:04:49;100442.22;;;19.87;61.40
34931;BME280;21134;49.646;8.560;2023-07-08T01:07:17;100451.03;;;19.83;61.65
34931;BME280;21134;49.646;8.560;2023-07-08T01:09:51;100452.91;;;19.80;62.11
34931;BME280;21134;49.646;8.560;2023-07-08T01:12:20;100457.63;;;19.70;60.79
34931;BME280;21134;49.646;8.560;2023-07-08T01:14:51;100455.75;;;19.73;60.57
34931;BME280;21134;49.646;8.560;2023-07-08T01:17:20;100453.16;;;19.73;61.03
34931;BME280;21134;49.646;8.560;2023-07-08T01:19:48;100459.19;;;19.74;61.11
34931;BME280;21134;49.646;8.560;2023-07-08T01:22:18;100459.44;;;19.68;62.01
34931;BME280;21134;49.646;8.560;2023-07-08T01:24:44;100464.63;;;19.68;62.49
34931;BME280;21134;49.646;8.560;2023-07-08T01:27:13;100458.19;;;19.55;61.97
34931;BME280;21134;49.646;8.560;2023-07-08T01:29:41;100456.78;;;19.46;61.48
34931;BME280;21134;49.646;8.560;2023-07-08T01:32:11;100456.84;;;19.44;61.52
34931;BME280;21134;49.646;8.560;2023-07-08T01:34:44;100459.59;;;19.18;63.92
34931;BME280;21134;49.646;8.560;2023-07-08T01:37:28;100464.91;;;19.15;63.87
34931;BME280;21134;49.646;8.560;2023-07-08T01:39:55;100452.25;;;19.29;63.25
34931;BME280;21134;49.646;8.560;2023-07-08T01:42:21;100453.03;;;19.31;63.06
34931;BME280;21134;49.646;8.560;2023-07-08T01:44:49;100443.38;;;19.35;63.45
34931;BME280;21134;49.646;8.560;2023-07-08T01:47:18;100445.91;;;19.36;64.05
34931;BME280;21134;49.646;8.560;2023-07-08T01:49:47;100441.72;;;19.34;63.71
34931;BME280;21134;49.646;8.560;2023-07-08T01:52:15;100441.56;;;19.37;64.36
34931;BME280;21134;49.646;8.560;2023-07-08T01:54:44;100442.19;;;19.43;63.98
34931;BME280;21134;49.646;8.560;2023-07-08T01:57:11;100439.59;;;19.43;64.35
34931;BME280;21134;49.646;8.560;2023-07-08T01:59:37;100443.31;;;19.36;65.08
34931;BME280;21134;49.646;8.560;2023-07-08T02:02:04;100442.78;;;19.28;65.17
34931;BME280;21134;49.646;8.560;2023-07-08T02:04:30;100439.69;;;19.18;65.22
34931;BME280;21134;49.646;8.560;2023-07-08T02:06:58;100429.25;;;19.20;65.37
34931;BME280;21134;49.646;8.560;2023-07-08T02:09:25;100433.66;;;19.18;66.30
34931;BME280;21134;49.646;8.560;2023-07-08T02:11:54;100427.97;;;19.08;66.40
34931;BME280;21134;49.646;8.560;2023-07-08T02:14:21;100422.94;;;19.03;66.59
34931;BME280;21134;49.646;8.560;2023-07-08T02:16:48;100422.22;;;19.00;66.47
34931;BME280;21134;49.646;8.560;2023-07-08T02:19:15;100419.25;;;18.86;66.93
34931;BME280;21134;49.646;8.560;2023-07-08T02:21:41;100414.22;;;18.83;67.34
34931;BME280;21134;49.646;8.560;2023-07-08T02:24:08;100420.03;;;18.89;67.13
34931;BME280;21134;49.646;8.560;2023-07-08T02:26:34;100420.13;;;18.86;67.11
34931;BME280;21134;49.646;8.560;2023-07-08T02:29:03;100418.06;;;18.71;68.09
34931;BME280;21134;49.646;8.560;2023-07-08T02:31:29;100419.19;;;18.64;68.20
34931;BME280;21134;49.646;8.560;2023-07-08T02:33:55;100416.69;;;18.61;68.19
34931;BME280;21134;49.646;8.560;2023-07-08T02:36:22;100422.75;;;18.59;68.37
34931;BME280;21134;49.646;8.560;2023-07-08T02:38:49;100416.75;;;18.59;68.70
34931;BME280;21134;49.646;8.560;2023-07-08T02:41:15;100418.91;;;18.46;69.07
34931;BME280;21134;49.646;8.560;2023-07-08T02:43:42;100422.72;;;18.36;69.28
34931;BME280;21134;49.646;8.560;2023-07-08T02:46:10;100421.88;;;18.35;69.08
34931;BME280;21134;49.646;8.560;2023-07-08T02:48:36;100428.19;;;18.28;69.86
34931;BME280;21134;49.646;8.560;2023-07-08T02:51:04;100422.22;;;18.25;69.92
34931;BME280;21134;49.646;8.560;2023-07-08T02:53:31;100429.31;;;18.20;70.57
34931;BME280;21134;49.646;8.560;2023-07-08T02:55:58;100427.69;;;18.17;70.41
34931;BME280;21134;49.646;8.560;2023-07-08T02:58:24;100424.19;;;18.18;70.00
34931;BME280;21134;49.646;8.560;2023-07-08T03:00:51;100431.47;;;18.07;70.51
34931;BME280;21134;49.646;8.560;2023-07-08T03:03:19;100423.81;;;18.04;70.66
34931;BME280;21134;49.646;8.560;2023-07-08T03:05:54;100432.63;;;17.98;70.65
34931;BME280;21134;49.646;8.560;2023-07-08T03:08:20;100438.94;;;17.89;71.10
34931;BME280;21134;49.646;8.560;2023-07-08T03:10:47;100438.38;;;17.80;71.24
34931;BME280;21134;49.646;8.560;2023-07-08T03:13:14;100445.44;;;17.75;71.66
34931;BME280;21134;49.646;8.560;2023-07-08T03:15:44;100460.03;;;17.77;72.45
34931;BME280;21134;49.646;8.560;2023-07-08T03:18:10;100456.34;;;17.56;72.76
34931;BME280;21134;49.646;8.560;2023-07-08T03:20:40;100455.53;;;17.54;73.18
34931;BME280;21134;49.646;8.560;2023-07-08T03:23:10;100457.28;;;17.54;73.58
34931;BME280;21134;49.646;8.560;2023-07-08T03:25:36;100467.63;;;17.54;74.22
34931;BME280;21134;49.646;8.560;2023-07-08T03:28:03;100462.22;;;17.61;74.40
34931;BME280;21134;49.646;8.560;2023-07-08T03:30:31;100459.56;;;17.63;74.22
34931;BME280;21134;49.646;8.560;2023-07-08T03:32:57;100456.91;;;17.66;74.03
34931;BME280;21134;49.646;8.560;2023-07-08T03:35:24;100458.56;;;17.69;73.21
34931;BME280;21134;49.646;8.560;2023-07-08T03:37:52;100458.50;;;17.70;73.64
34931;BME280;21134;49.646;8.560;2023-07-08T03:40:19;100464.25;;;17.80;72.70
34931;BME280;21134;49.646;8.560;2023-07-08T03:42:45;100462.63;;;17.76;73.37
34931;BME280;21134;49.646;8.560;2023-07-08T03:45:12;100464.31;;;17.78;73.36
34931;BME280;21134;49.646;8.560;2023-07-08T03:47:38;100466.13;;;17.75;73.17
34931;BME280;21134;49.646;8.560;2023-07-08T03:50:07;100470.59;;;17.70;73.10
34931;BME280;21134;49.646;8.560;2023-07-08T03:52:37;100468.84;;;17.70;73.89
34931;BME280;21134;49.646;8.560;2023-07-08T03:55:06;100465.41;;;17.70;74.17
34931;BME280;21134;49.646;8.560;2023-07-08T03:57:34;100463.56;;;17.73;74.28
34931;BME280;21134;49.646;8.560;2023-07-08T04:00:00;100460.81;;;17.79;74.06
34931;BME280;21134;49.646;8.560;2023-07-08T04:02:27;100460.50;;;17.90;73.17
34931;BME280;21134;49.646;8.560;2023-07-08T04:04:53;100461.84;;;18.02;73.04
34931;BME280;21134;49.646;8.560;2023-07-08T04:07:20;100466.91;;;18.05;73.10
34931;BME280;21134;49.646;8.560;2023-07-08T04:09:46;100459.88;;;18.10;72.97
34931;BME280;21134;49.646;8.560;2023-07-08T04:12:17;100456.81;;;18.24;71.66
34931;BME280;21134;49.646;8.560;2023-07-08T04:14:44;100453.84;;;18.34;70.95
34931;BME280;21134;49.646;8.560;2023-07-08T04:17:11;100450.00;;;18.46;70.24
34931;BME280;21134;49.646;8.560;2023-07-08T04:19:38;100447.16;;;18.54;70.79
34931;BME280;21134;49.646;8.560;2023-07-08T04:22:05;100447.78;;;18.61;71.14
34931;BME280;21134;49.646;8.560;2023-07-08T04:24:32;100445.03;;;18.65;71.13
34931;BME280;21134;49.646;8.560;2023-07-08T04:26:58;100440.56;;;18.69;71.25
34931;BME280;21134;49.646;8.560;2023-07-08T04:29:26;100444.75;;;18.74;70.56
34931;BME280;21134;49.646;8.560;2023-07-08T04:31:53;100442.06;;;18.76;70.70
34931;BME280;21134;49.646;8.560;2023-07-08T04:34:20;100435.00;;;18.81;70.36
34931;BME280;21134;49.646;8.560;2023-07-08T04:36:46;100439.97;;;18.87;70.24
34931;BME280;21134;49.646;8.560;2023-07-08T04:39:13;100441.50;;;18.93;70.33
34931;BME280;21134;49.646;8.560;2023-07-08T04:41:40;100452.25;;;19.05;70.57
34931;BME280;21134;49.646;8.560;2023-07-08T04:44:09;100448.44;;;19.16;70.42
34931;BME280;21134;49.646;8.560;2023-07-08T04:46:40;100454.13;;;19.25;70.61
34931;BME280;21134;49.646;8.560;2023-07-08T04:49:08;100452.84;;;19.36;70.64
34931;BME280;21134;49.646;8.560;2023-07-08T04:51:35;100475.13;;;19.41;71.07
34931;BME280;21134;49.646;8.560;2023-07-08T04:54:02;100466.28;;;19.47;71.30
34931;BME280;21134;49.646;8.560;2023-07-08T04:56:36;100467.88;;;19.49;71.22
34931;BME280;21134;49.646;8.560;2023-07-08T04:59:03;100473.22;;;19.46;70.78
34931;BME280;21134;49.646;8.560;2023-07-08T05:01:30;100468.03;;;19.46;70.53
34931;BME280;21134;49.646;8.560;2023-07-08T05:03:58;100469.41;;;19.55;69.71
34931;BME280;21134;49.646;8.560;2023-07-08T05:06:25;100473.47;;;19.62;69.67
34931;BME280;21134;49.646;8.560;2023-07-08T05:08:51;100466.59;;;19.61;69.03
34931;BME280;21134;49.646;8.560;2023-07-08T05:11:18;100469.06;;;19.66;68.43
34931;BME280;21134;49.646;8.560;2023-07-08T05:13:44;100478.16;;;19.76;68.58
34931;BME280;21134;49.646;8.560;2023-07-08T05:16:11;100471.38;;;19.94;68.53
34931;BME280;21134;49.646;8.560;2023-07-08T05:18:37;100475.84;;;20.12;67.83
34931;BME280;21134;49.646;8.560;2023-07-08T05:21:05;100471.44;;;20.14;64.72
34931;BME280;21134;49.646;8.560;2023-07-08T05:23:33;100477.13;;;20.23;63.94
34931;BME280;21134;49.646;8.560;2023-07-08T05:26:00;100482.75;;;20.34;63.65
34931;BME280;21134;49.646;8.560;2023-07-08T05:28:27;100500.56;;;20.43;63.04
34931;BME280;21134;49.646;8.560;2023-07-08T05:30:53;100506.53;;;20.45;63.45
34931;BME280;21134;49.646;8.560;2023-07-08T05:33:21;100513.94;;;20.56;62.48
34931;BME280;21134;49.646;8.560;2023-07-08T05:35:47;100520.63;;;20.61;62.59
34931;BME280;21134;49.646;8.560;2023-07-08T05:38:15;100522.00;;;20.48;62.03
34931;BME280;21134;49.646;8.560;2023-07-08T05:40:41;100530.16;;;20.61;61.58
34931;BME280;21134;49.646;8.560;2023-07-08T05:43:08;100528.31;;;20.64;61.59
34931;BME280;21134;49.646;8.560;2023-07-08T05:45:35;100524.56;;;20.70;61.99
34931;BME280;21134;49.646;8.560;2023-07-08T05:48:01;100525.03;;;20.80;62.43
34931;BME280;21134;49.646;8.560;2023-07-08T05:50:28;100523.97;;;21.04;62.01
34931;BME280;21134;49.646;8.560;2023-07-08T05:52:54;100525.13;;;21.18;62.61
34931;BME280;21134;49.646;8.560;2023-07-08T05:55:22;100524.44;;;21.33;61.97
34931;BME280;21134;49.646;8.560;2023-07-08T05:57:49;100526.19;;;21.32;61.52
34931;BME280;21134;49.646;8.560;2023-07-08T06:00:15;100522.66;;;21.33;61.21
34931;BME280;21134;49.646;8.560;2023-07-08T06:02:42;100529.63;;;21.33;61.06
34931;BME280;21134;49.646;8.560;2023-07-08T06:05:09;100530.47;;;21.35;60.92
34931;BME280;21134;49.646;8.560;2023-07-08T06:07:35;100538.19;;;21.36;61.02
34931;BME280;21134;49.646;8.560;2023-07-08T06:10:02;100554.66;;;21.37;62.18
34931;BME280;21134;49.646;8.560;2023-07-08T06:12:30;100552.16;;;21.34;62.73
34931;BME280;21134;49.646;8.560;2023-07-08T06:14:57;100556.59;;;21.32;63.13
34931;BME280;21134;49.646;8.560;2023-07-08T06:17:23;100558.28;;;21.33;63.09
34931;BME280;21134;49.646;8.560;2023-07-08T06:19:50;100564.22;;;21.36;62.84
34931;BME280;21134;49.646;8.560;2023-07-08T06:22:16;100573.66;;;21.39;62.93
34931;BME280;21134;49.646;8.560;2023-07-08T06:24:43;100574.09;;;21.49;62.62
34931;BME280;21134;49.646;8.560;2023-07-08T06:27:10;100569.56;;;21.52;62.38
34931;BME280;21134;49.646;8.560;2023-07-08T06:29:37;100565.03;;;21.57;62.99
34931;BME280;21134;49.646;8.560;2023-07-08T06:32:05;100565.16;;;21.73;60.94
34931;BME280;21134;49.646;8.560;2023-07-08T06:34:32;100561.50;;;21.77;60.82
34931;BME280;21134;49.646;8.560;2023-07-08T06:36:58;100564.56;;;21.86;61.36
34931;BME280;21134;49.646;8.560;2023-07-08T06:39:25;100550.22;;;21.96;61.07
34931;BME280;21134;49.646;8.560;2023-07-08T06:41:51;100558.34;;;22.07;62.24
34931;BME280;21134;49.646;8.560;2023-07-08T06:44:18;100551.03;;;22.15;60.65
34931;BME280;21134;49.646;8.560;2023-07-08T06:46:46;100556.88;;;22.20;61.25
34931;BME280;21134;49.646;8.560;2023-07-08T06:49:12;100551.00;;;22.34;59.05
34931;BME280;21134;49.646;8.560;2023-07-08T06:51:39;100548.41;;;22.34;59.12
34931;BME280;21134;49.646;8.560;2023-07-08T06:54:06;100549.84;;;22.40;58.98
34931;BME280;21134;49.646;8.560;2023-07-08T06:56:36;100559.13;;;22.45;59.59
34931;BME280;21134;49.646;8.560;2023-07-08T06:59:03;100553.63;;;22.51;59.09
34931;BME280;21134;49.646;8.560;2023-07-08T07:01:29;100564.00;;;22.53;59.70
34931;BME280;21134;49.646;8.560;2023-07-08T07:03:57;100569.66;;;22.61;59.73
34931;BME280;21134;49.646;8.560;2023-07-08T07:06:24;100568.03;;;22.59;59.78
34931;BME280;21134;49.646;8.560;2023-07-08T07:08:51;100565.97;;;22.65;59.73
34931;BME280;21134;49.646;8.560;2023-07-08T07:11:17;100571.63;;;22.91;58.86
34931;BME280;21134;49.646;8.560;2023-07-08T07:13:45;100572.63;;;23.23;57.82
34931;BME280;21134;49.646;8.560;2023-07-08T07:16:11;100563.97;;;23.38;56.64
34931;BME280;21134;49.646;8.560;2023-07-08T07:18:38;100577.56;;;23.61;54.95
34931;BME280;21134;49.646;8.560;2023-07-08T07:21:05;100569.69;;;23.94;54.72
34931;BME280;21134;49.646;8.560;2023-07-08T07:23:32;100572.59;;;24.35;53.48
34931;BME280;21134;49.646;8.560;2023-07-08T07:25:59;100578.03;;;24.63;52.85
34931;BME280;21134;49.646;8.560;2023-07-08T07:28:25;100572.00;;;24.91;50.68
34931;BME280;21134;49.646;8.560;2023-07-08T07:30:56;100580.34;;;24.97;50.17
34931;BME280;21134;49.646;8.560;2023-07-08T07:33:23;100590.81;;;24.97;49.32
34931;BME280;21134;49.646;8.560;2023-07-08T07:35:49;100587.47;;;25.10;48.37
34931;BME280;21134;49.646;8.560;2023-07-08T07:38:17;100588.81;;;25.60;47.83
34931;BME280;21134;49.646;8.560;2023-07-08T07:40:44;100584.44;;;26.02;44.94
34931;BME280;21134;49.646;8.560;2023-07-08T07:43:10;100579.34;;;26.40;43.32
34931;BME280;21134;49.646;8.560;2023-07-08T07:45:37;100592.22;;;26.70;43.93
34931;BME280;21134;49.646;8.560;2023-07-08T07:48:04;100594.78;;;26.97;43.22
34931;BME280;21134;49.646;8.560;2023-07-08T07:50:31;100605.31;;;26.97;43.07
34931;BME280;21134;49.646;8.560;2023-07-08T07:52:57;100611.16;;;26.88;43.22
34931;BME280;21134;49.646;8.560;2023-07-08T07:55:25;100610.91;;;26.53;43.60
34931;BME280;21134;49.646;8.560;2023-07-08T07:57:52;100613.78;;;26.21;44.50
34931;BME280;21134;49.646;8.560;2023-07-08T08:00:19;100617.97;;;26.11;44.42
34931;BME280;21134;49.646;8.560;2023-07-08T08:02:46;100621.25;;;26.00;45.35
34931;BME280;21134;49.646;8.560;2023-07-08T08:05:12;100620.06;;;25.91;45.53
34931;BME280;21134;49.646;8.560;2023-07-08T08:07:39;100621.63;;;25.94;46.09
34931;BME280;21134;49.646;8.560;2023-07-08T08:10:07;100618.25;;;25.78;46.85
34931;BME280;21134;49.646;8.560;2023-07-08T08:12:35;100623.91;;;26.27;46.33
34931;BME280;21134;49.646;8.560;2023-07-08T08:15:01;100634.94;;;26.59;46.14
34931;BME280;21134;49.646;8.560;2023-07-08T08:17:28;100628.75;;;26.60;45.54
34931;BME280;21134;49.646;8.560;2023-07-08T08:19:54;100632.34;;;26.72;45.48
34931;BME280;21134;49.646;8.560;2023-07-08T08:22:21;100630.09;;;27.06;43.96
34931;BME280;21134;49.646;8.560;2023-07-08T08:24:49;100632.31;;;27.38;43.79
34931;BME280;21134;49.646;8.560;2023-07-08T08:27:15;100629.38;;;27.42;43.71
34931;BME280;21134;49.646;8.560;2023-07-08T08:29:43;100643.69;;;27.38;43.08
34931;BME280;21134;49.646;8.560;2023-07-08T08:32:10;100646.84;;;27.43;43.91
34931;BME280;21134;49.646;8.560;2023-07-08T08:34:36;100640.75;;;27.43;44.11
34931;BME280;21134;49.646;8.560;2023-07-08T08:37:03;100639.34;;;27.63;45.56
34931;BME280;21134;49.646;8.560;2023-07-08T08:39:30;100639.88;;;27.80;45.31
34931;BME280;21134;49.646;8.560;2023-07-08T08:41:57;100642.25;;;27.96;45.05
34931;BME280;21134;49.646;8.560;2023-07-08T08:44:27;100637.53;;;28.25;44.08
34931;BME280;21134;49.646;8.560;2023-07-08T08:47:02;100649.63;;;28.28;44.49
34931;BME280;21134;49.646;8.560;2023-07-08T08:49:35;100651.19;;;28.43;43.72
34931;BME280;21134;49.646;8.560;2023-07-08T08:52:04;100641.56;;;28.66;44.20
34931;BME280;21134;49.646;8.560;2023-07-08T08:54:31;100646.22;;;28.63;43.35
34931;BME280;21134;49.646;8.560;2023-07-08T08:57:02;100643.00;;;28.70;42.57
34931;BME280;21134;49.646;8.560;2023-07-08T08:59:38;100640.53;;;28.80;42.88
34931;BME280;21134;49.646;8.560;2023-07-08T09:02:23;100642.31;;;28.80;42.12
34931;BME280;21134;49.646;8.560;2023-07-08T09:04:51;100646.91;;;28.89;42.15
34931;BME280;21134;49.646;8.560;2023-07-08T09:07:20;100633.75;;;29.00;42.84
34931;BME280;21134;49.646;8.560;2023-07-08T09:09:51;100628.06;;;29.29;43.31
34931;BME280;21134;49.646;8.560;2023-07-08T09:12:25;100632.16;;;29.33;40.86
34931;BME280;21134;49.646;8.560;2023-07-08T09:14:53;100634.09;;;29.42;41.73
34931;BME280;21134;49.646;8.560;2023-07-08T09:17:23;100633.38;;;29.62;40.99
34931;BME280;21134;49.646;8.560;2023-07-08T09:19:58;100630.63;;;29.75;40.40
34931;BME280;21134;49.646;8.560;2023-07-08T09:22:32;100618.84;;;29.79;40.57
34931;BME280;21134;49.646;8.560;2023-07-08T09:25:05;100617.28;;;29.88;41.54
34931;BME280;21134;49.646;8.560;2023-07-08T09:27:38;100614.09;;;30.05;41.56
34931;BME280;21134;49.646;8.560;2023-07-08T09:30:09;100611.06;;;30.32;42.70
34931;BME280;21134;49.646;8.560;2023-07-08T09:32:40;100614.31;;;30.57;41.29
34931;BME280;21134;49.646;8.560;2023-07-08T09:35:09;100615.03;;;30.59;41.71
34931;BME280;21134;49.646;8.560;2023-07-08T09:37:45;100618.88;;;30.76;40.65
34931;BME280;21134;49.646;8.560;2023-07-08T09:40:16;100619.94;;;30.85;40.56
34931;BME280;21134;49.646;8.560;2023-07-08T09:42:46;100615.28;;;30.98;40.65
34931;BME280;21134;49.646;8.560;2023-07-08T09:45:16;100617.88;;;31.09;40.75
34931;BME280;21134;49.646;8.560;2023-07-08T09:47:44;100608.91;;;31.21;39.96
34931;BME280;21134;49.646;8.560;2023-07-08T09:50:19;100612.38;;;31.22;40.17
34931;BME280;21134;49.646;8.560;2023-07-08T09:52:46;100609.78;;;31.32;39.60
34931;BME280;21134;49.646;8.560;2023-07-08T09:55:14;100612.75;;;31.38;39.67
34931;BME280;21134;49.646;8.560;2023-07-08T09:57:43;100607.25;;;31.30;40.04
34931;BME280;21134;49.646;8.560;2023-07-08T10:00:12;100604.19;;;31.25;40.04
34931;BME280;21134;49.646;8.560;2023-07-08T10:02:43;100604.81;;;31.38;40.09
34931;BME280;21134;49.646;8.560;2023-07-08T10:05:18;100602.34;;;31.46;39.19
34931;BME280;21134;49.646;8.560;2023-07-08T10:07:47;100601.22;;;31.49;39.90
34931;BME280;21134;49.646;8.560;2023-07-08T10:10:16;100602.78;;;31.52;39.41
34931;BME280;21134;49.646;8.560;2023-07-08T10:12:52;100601.97;;;31.61;40.92
34931;BME280;21134;49.646;8.560;2023-07-08T10:15:26;100598.09;;;31.74;39.51
34931;BME280;21134;49.646;8.560;2023-07-08T10:17:54;100593.66;;;31.65;39.16
34931;BME280;21134;49.646;8.560;2023-07-08T10:20:23;100594.22;;;31.79;38.93
34931;BME280;21134;49.646;8.560;2023-07-08T10:23:00;100585.88;;;31.83;38.67
34931;BME280;21134;49.646;8.560;2023-07-08T10:25:38;100588.16;;;31.98;38.81
34931;BME280;21134;49.646;8.560;2023-07-08T10:28:23;100588.75;;;31.70;39.45
34931;BME280;21134;49.646;8.560;2023-07-08T10:30:58;100591.03;;;31.75;38.61
34931;BME280;21134;49.646;8.560;2023-07-08T10:33:50;100584.47;;;31.69;39.59
34931;BME280;21134;49.646;8.560;2023-07-08T10:36:34;100583.94;;;31.85;39.07
34931;BME280;21134;49.646;8.560;2023-07-08T10:39:22;100577.84;;;31.94;39.00
34931;BME280;21134;49.646;8.560;2023-07-08T10:41:57;100581.19;;;32.06;39.83
34931;BME280;21134;49.646;8.560;2023-07-08T10:44:34;100587.91;;;32.30;38.63
34931;BME280;21134;49.646;8.560;2023-07-08T10:47:10;100584.44;;;32.49;39.72
34931;BME280;21134;49.646;8.560;2023-07-08T10:49:52;100588.28;;;32.64;38.80
34931;BME280;21134;49.646;8.560;2023-07-08T10:52:42;100579.94;;;32.69;39.33
34931;BME280;21134;49.646;8.560;2023-07-08T10:55:19;100580.03;;;32.77;38.47
34931;BME280;21134;49.646;8.560;2023-07-08T10:58:00;100582.09;;;32.93;38.62
34931;BME280;21134;49.646;8.560;2023-07-08T11:00:35;100576.41;;;32.97;37.32
34931;BME280;21134;49.646;8.560;2023-07-08T11:03:31;100572.72;;;33.08;36.90
34931;BME280;21134;49.646;8.560;2023-07-08T11:06:05;100573.97;;;33.14;37.81
34931;BME280;21134;49.646;8.560;2023-07-08T11:08:39;100571.09;;;33.25;36.43
34931;BME280;21134;49.646;8.560;2023-07-08T11:11:09;100570.19;;;33.16;36.86
34931;BME280;21134;49.646;8.560;2023-07-08T11:13:42;100573.13;;;33.13;37.38
34931;BME280;21134;49.646;8.560;2023-07-08T11:16:16;100574.94;;;33.13;38.33
34931;BME280;21134;49.646;8.560;2023-07-08T11:18:50;100566.75;;;33.33;36.84
34931;BME280;21134;49.646;8.560;2023-07-08T11:21:20;100571.47;;;33.40;36.79
34931;BME280;21134;49.646;8.560;2023-07-08T11:23:53;100574.41;;;33.37;36.43
34931;BME280;21134;49.646;8.560;2023-07-08T11:26:26;100580.16;;;33.32;36.76
34931;BME280;21134;49.646;8.560;2023-07-08T11:28:57;100568.28;;;33.36;36.97
34931;BME280;21134;49.646;8.560;2023-07-08T11:31:26;100560.03;;;33.39;36.19
34931;BME280;21134;49.646;8.560;2023-07-08T11:33:54;100562.88;;;33.55;36.47
34931;BME280;21134;49.646;8.560;2023-07-08T11:36:23;100561.75;;;33.58;36.15
34931;BME280;21134;49.646;8.560;2023-07-08T11:38:53;100555.16;;;33.62;36.71
34931;BME280;21134;49.646;8.560;2023-07-08T11:41:22;100561.09;;;33.74;36.54
34931;BME280;21134;49.646;8.560;2023-07-08T11:43:52;100562.41;;;33.88;35.92
34931;BME280;21134;49.646;8.560;2023-07-08T11:46:20;100555.13;;;33.90;35.63
34931;BME280;21134;49.646;8.560;2023-07-08T11:48:49;100555.66;;;33.93;35.04
34931;BME280;21134;49.646;8.560;2023-07-08T11:51:18;100555.81;;;34.10;34.93
34931;BME280;21134;49.646;8.560;2023-07-08T11:53:49;100552.09;;;34.20;35.11
34931;BME280;21134;49.646;8.560;2023-07-08T11:56:23;100553.31;;;34.26;34.94
34931;BME280;21134;49.646;8.560;2023-07-08T11:59:03;100550.28;;;34.21;34.56
34931;BME280;21134;49.646;8.560;2023-07-08T12:01:38;100536.84;;;34.22;34.26
34931;BME280;21134;49.646;8.560;2023-07-08T12:04:28;100537.84;;;34.21;34.52
34931;BME280;21134;49.646;8.560;2023-07-08T12:07:17;100538.78;;;34.38;33.15
34931;BME280;21134;49.646;8.560;2023-07-08T12:09:48;100542.28;;;34.39;32.27
34931;BME280;21134;49.646;8.560;2023-07-08T12:12:21;100544.50;;;34.43;33.62
34931;BME280;21134;49.646;8.560;2023-07-08T12:14:49;100533.78;;;34.53;33.58
34931;BME280;21134;49.646;8.560;2023-07-08T12:17:16;100541.13;;;34.59;32.88
34931;BME280;21134;49.646;8.560;2023-07-08T12:19:44;100532.38;;;34.67;33.49
34931;BME280;21134;49.646;8.560;2023-07-08T12:22:13;100533.41;;;34.74;31.96
34931;BME280;21134;49.646;8.560;2023-07-08T12:24:40;100523.75;;;34.73;31.89
34931;BME280;21134;49.646;8.560;2023-07-08T12:27:09;100528.47;;;34.87;32.21
34931;BME280;21134;49.646;8.560;2023-07-08T12:29:37;100522.38;;;34.95;32.03
34931;BME280;21134;49.646;8.560;2023-07-08T12:32:05;100520.91;;;35.01;32.07
34931;BME280;21134;49.646;8.560;2023-07-08T12:34:32;100528.94;;;35.09;31.90
34931;BME280;21134;49.646;8.560;2023-07-08T12:36:59;100520.00;;;35.18;32.25
34931;BME280;21134;49.646;8.560;2023-07-08T12:39:25;100524.63;;;35.08;31.49
34931;BME280;21134;49.646;8.560;2023-07-08T12:41:52;100534.28;;;35.09;32.14
34931;BME280;21134;49.646;8.560;2023-07-08T12:44:21;100530.47;;;35.11;33.79
34931;BME280;21134;49.646;8.560;2023-07-08T12:46:52;100524.81;;;35.14;31.70
34931;BME280;21134;49.646;8.560;2023-07-08T12:49:19;100523.81;;;35.15;31.58
34931;BME280;21134;49.646;8.560;2023-07-08T12:51:47;100521.34;;;35.22;31.84
34931;BME280;21134;49.646;8.560;2023-07-08T12:54:14;100525.69;;;35.31;31.17
34931;BME280;21134;49.646;8.560;2023-07-08T12:56:45;100515.78;;;35.50;29.38
34931;BME280;21134;49.646;8.560;2023-07-08T12:59:17;100513.66;;;35.53;28.90